Judenburg, Austria
Current Conditions -  °F | °C
As of 6:50 AM on Tuesday 23 Dec 2014 (Local Time) from LOXZ Reporting Station
Broken Clouds Broken Clouds  
Wind Chill: 25°   Ceiling: 35000
Heat Index: 25°   Visibility: 16mi
Dew Point: 23°   Wind: 2mph
Humidity: 93%   Direction: NA
Pressure: 30.15"   Gusts: NA
Location:  47.17°N, 14.66°E
Report Text: LOXZ 230450Z VRB02KT 25KM FEW100AC BKN350CI M04/M05 Q1021 RMKBKN
Loading
Personal Weather Stations






























Interactive Weather Map New forecast layout! Learn more

10-Day Weather Forecast

Advertisements
Track Severe Weather on mobile